< < Back
Terminal Aerodrome Forecast


Current Version              Previous Versions:   1  2  3  4  5  6  7  8  9  

Terminal Aerodrome Forecast

020
FTUS44 KBMX 291132
TAFANB
TAF
KANB 291132Z 2912/3012 23004KT P6SM SCT020
     FM291500 25006KT P6SM VCSH BKN035
     FM291800 25008KT P6SM VCTS BKN050CB
     FM300200 00000KT P6SM SCT025=



Latest METAR

836
SAUS70 KWBC 300300 RRJ
MTRANB
METAR KANB 300253Z AUTO 22005KT 10SM FEW040 BKN049 BKN060 24/22 A3003
RMK AO2 SLP160 6//// T02440217 53021 PNO $


USA.gov is the U.S. government's official web portal to all federal, state and local government web resources and services.